createdAt,value
2023-04-21T00:01:12.931Z,97678.38
2023-04-21T00:05:15.517Z,97691.28
2023-04-21T00:09:18.572Z,97695.41
2023-04-21T00:13:20.771Z,97695.47
2023-04-21T00:17:22.804Z,97695.72
2023-04-21T00:21:25.178Z,97689.72
2023-04-21T00:25:27.608Z,97690.38
2023-04-21T00:29:29.599Z,97688.81
2023-04-21T00:33:32.135Z,97696.75
2023-04-21T00:37:34.309Z,97689.69
2023-04-21T00:41:37.117Z,97693.69
2023-04-21T00:45:39.134Z,97676.69
2023-04-21T00:49:41.678Z,97688.69
2023-04-21T00:53:44.991Z,97690.72
2023-04-21T00:57:49.068Z,97684.59
2023-04-21T01:01:52.787Z,97683.44
2023-04-21T01:05:56.845Z,97678.50
2023-04-21T01:09:59.770Z,97674.25
2023-04-21T01:14:01.806Z,97676.66
2023-04-21T01:18:03.888Z,97676.66
2023-04-21T01:22:13.609Z,97675.66
2023-04-21T01:26:19.926Z,97676.38
2023-04-21T01:30:22.014Z,97675.56
2023-04-21T01:34:24.082Z,97677.31
2023-04-21T01:38:26.124Z,97669.84
2023-04-21T01:42:29.527Z,97676.09
2023-04-21T01:46:33.576Z,97679.44
2023-04-21T01:50:35.831Z,97668.25
2023-04-21T01:54:37.920Z,97677.81
2023-04-21T01:58:39.934Z,97676.75
2023-04-21T02:02:42.074Z,97675.06
2023-04-21T02:06:44.350Z,97673.34
2023-04-21T02:10:46.393Z,97670.03
2023-04-21T02:14:49.370Z,97670.25
2023-04-21T02:18:52.387Z,97674.09
2023-04-21T02:22:54.444Z,97675.78
2023-04-21T02:26:58.183Z,97670.09
2023-04-21T02:31:00.271Z,97674.16
2023-04-21T02:35:02.333Z,97671.56
2023-04-21T02:39:06.234Z,97681.97
2023-04-21T02:43:08.648Z,97680.06
2023-04-21T02:47:10.738Z,97682.41
2023-04-21T02:51:13.699Z,97683.84
2023-04-21T02:55:16.522Z,97682.06
2023-04-21T02:59:18.780Z,97689.03
2023-04-21T03:03:21.457Z,97680.19
2023-04-21T03:07:24.749Z,97679.66
2023-04-21T03:11:26.789Z,97686.38
2023-04-21T03:15:29.931Z,97678.84
2023-04-21T03:19:32.993Z,97689.50
2023-04-21T03:23:35.116Z,97691.00
2023-04-21T03:27:37.227Z,97692.56
2023-04-21T03:31:39.336Z,97673.47
2023-04-21T03:35:42.058Z,97682.91
2023-04-21T03:39:44.401Z,97685.00
2023-04-21T03:43:46.800Z,97691.56
2023-04-21T03:47:49.277Z,97698.38
2023-04-21T03:51:51.353Z,97702.53
2023-04-21T03:55:53.367Z,97687.78
2023-04-21T03:59:55.480Z,97685.13
2023-04-21T04:03:57.787Z,97679.03
2023-04-21T04:08:00.102Z,97684.44
2023-04-21T04:12:03.426Z,97679.53
2023-04-21T04:16:05.970Z,97673.38
2023-04-21T04:20:08.544Z,97684.41
2023-04-21T04:24:11.481Z,97688.75
2023-04-21T04:28:13.618Z,97684.59
2023-04-21T04:32:15.672Z,97692.38
2023-04-21T04:36:17.715Z,97685.34
2023-04-21T04:40:20.556Z,97689.66
2023-04-21T04:44:23.601Z,97688.72
2023-04-21T04:48:26.146Z,97689.50
2023-04-21T04:52:28.304Z,97690.19
2023-04-21T04:56:30.868Z,97684.84
2023-04-21T05:00:33.145Z,97682.63
2023-04-21T05:04:35.274Z,97679.22
2023-04-21T05:08:37.385Z,97676.88
2023-04-21T05:12:39.592Z,97681.44
2023-04-21T05:16:43.701Z,97682.31
2023-04-21T05:20:46.183Z,97686.16
2023-04-21T05:24:48.335Z,97692.53
2023-04-21T05:28:51.005Z,97699.75
2023-04-21T05:32:53.089Z,97707.41
2023-04-21T05:36:55.291Z,97703.31
2023-04-21T05:40:57.334Z,97691.47
2023-04-21T05:44:59.488Z,97684.03
2023-04-21T05:49:04.528Z,97689.72
2023-04-21T05:53:06.537Z,97695.66
2023-04-21T05:57:08.650Z,97707.75
2023-04-21T06:01:11.247Z,97696.28
2023-04-21T06:05:13.271Z,97691.56
2023-04-21T06:09:15.743Z,97692.94
2023-04-21T06:13:17.763Z,97688.44
2023-04-21T06:17:19.978Z,97689.00
2023-04-21T06:21:22.296Z,97694.00
2023-04-21T06:25:24.373Z,97691.25
2023-04-21T06:29:26.590Z,97693.59
2023-04-21T06:33:29.880Z,97696.31
2023-04-21T06:37:31.974Z,97684.91
2023-04-21T06:41:33.993Z,97683.09
2023-04-21T06:45:35.986Z,97679.44
2023-04-21T06:49:37.975Z,97678.75
2023-04-21T06:53:40.059Z,97680.75
2023-04-21T06:57:42.384Z,97695.19
2023-04-21T07:01:44.550Z,97683.88
2023-04-21T07:05:47.251Z,97679.13
2023-04-21T07:09:49.368Z,97686.28
2023-04-21T07:13:51.398Z,97688.47
2023-04-21T07:17:53.449Z,97700.00
2023-04-21T07:21:55.603Z,97697.94
2023-04-21T07:25:57.650Z,97689.75
2023-04-21T07:29:59.679Z,97693.59
2023-04-21T07:34:01.867Z,97698.59
2023-04-21T07:38:03.920Z,97706.28
2023-04-21T07:42:08.180Z,97693.13
2023-04-21T07:46:10.305Z,97696.50
2023-04-21T07:50:12.632Z,97692.44
2023-04-21T07:54:14.702Z,97701.13
2023-04-21T07:58:16.953Z,97702.84
2023-04-21T08:02:19.307Z,97695.84
2023-04-21T08:06:21.514Z,97693.38
2023-04-21T08:10:23.909Z,97686.41
2023-04-21T08:14:26.905Z,97682.16
2023-04-21T08:18:29.015Z,97690.81
2023-04-21T08:22:31.419Z,97678.97
2023-04-21T08:26:33.916Z,97664.13
2023-04-21T08:30:36.021Z,97670.66
2023-04-21T08:34:38.088Z,97662.41
2023-04-21T08:38:43.220Z,97664.78
2023-04-21T08:42:45.799Z,97675.66
2023-04-21T08:46:51.344Z,97676.66
2023-04-21T08:50:53.892Z,97676.09
2023-04-21T08:54:56.445Z,97662.94
2023-04-21T08:58:58.504Z,97654.13
2023-04-21T09:03:02.447Z,97663.31
2023-04-21T09:07:04.934Z,97668.44
2023-04-21T09:11:07.027Z,97667.69
2023-04-21T09:15:11.807Z,97680.19
2023-04-21T09:19:16.172Z,97678.88
2023-04-21T09:23:18.341Z,97684.53
2023-04-21T09:27:21.670Z,97684.97
2023-04-21T09:31:25.021Z,97669.97
2023-04-21T09:35:33.797Z,97674.38
2023-04-21T09:39:46.245Z,97669.44
2023-04-21T09:43:55.185Z,97686.41
2023-04-21T09:48:00.669Z,97686.06
2023-04-21T09:56:13.200Z,97674.91
2023-04-21T10:00:18.856Z,97679.59
2023-04-21T10:04:23.817Z,97674.84
2023-04-21T10:08:26.989Z,97683.56
2023-04-21T10:12:29.449Z,97671.34
2023-04-21T10:16:31.546Z,97678.41
2023-04-21T10:21:02.790Z,97668.78
2023-04-21T10:25:09.571Z,97675.72
2023-04-21T10:29:12.019Z,97666.91
2023-04-21T10:33:17.727Z,97659.53
2023-04-21T10:37:19.977Z,97656.91
2023-04-21T10:41:34.961Z,97652.81
2023-04-21T10:45:38.236Z,97658.09
2023-04-21T10:49:40.992Z,97651.97
2023-04-21T10:53:44.024Z,97649.47
2023-04-21T10:57:46.789Z,97644.16
2023-04-21T11:01:48.874Z,97646.63
2023-04-21T11:05:50.909Z,97638.50
2023-04-21T11:10:01.316Z,97635.25
2023-04-21T11:14:03.442Z,97635.75
2023-04-21T11:18:07.269Z,97638.88
2023-04-21T11:22:09.332Z,97625.84
2023-04-21T11:26:11.464Z,97631.38
2023-04-21T11:30:14.367Z,97627.31
2023-04-21T11:34:20.148Z,97617.03
2023-04-21T11:38:24.413Z,97608.13
2023-04-21T11:42:26.721Z,97596.66
2023-04-21T11:46:29.219Z,97594.88
2023-04-21T11:50:35.602Z,97593.41
2023-04-21T11:54:39.246Z,97596.34
2023-04-21T11:58:41.347Z,97592.94
2023-04-21T12:02:44.299Z,97593.88
2023-04-21T12:06:54.958Z,97586.94
2023-04-21T12:10:59.196Z,97592.09
2023-04-21T12:15:03.256Z,97592.84
2023-04-21T12:19:05.250Z,97588.75
2023-04-21T12:23:07.248Z,97583.13
2023-04-21T12:27:09.625Z,97579.31
2023-04-21T12:31:11.741Z,97574.28
2023-04-21T12:35:13.985Z,97574.06
2023-04-21T12:39:17.561Z,97565.38
2023-04-21T12:43:19.586Z,97570.91
2023-04-21T12:47:21.746Z,97568.16
2023-04-21T12:51:23.935Z,97565.44
2023-04-21T12:55:25.994Z,97553.47
2023-04-21T12:59:28.309Z,97555.28
2023-04-21T13:03:30.818Z,97555.38
2023-04-21T13:07:36.976Z,97553.38
2023-04-21T13:11:39.011Z,97543.69
2023-04-21T13:15:41.293Z,97548.81
2023-04-21T13:19:43.407Z,97544.41
2023-04-21T13:23:45.466Z,97543.50
2023-04-21T13:27:47.692Z,97524.53
2023-04-21T13:31:49.795Z,97523.09
2023-04-21T13:35:51.872Z,97516.16
2023-04-21T13:39:53.956Z,97521.25
2023-04-21T13:43:56.044Z,97508.19
2023-04-21T13:48:01.025Z,97511.91
2023-04-21T13:52:03.175Z,97501.66
2023-04-21T13:56:05.322Z,97492.53
2023-04-21T14:00:10.849Z,97489.69
2023-04-21T14:04:13.078Z,97482.00
2023-04-21T14:08:15.521Z,97468.31
2023-04-21T14:12:18.305Z,97464.50
2023-04-21T14:16:20.400Z,97460.44
2023-04-21T14:20:22.568Z,97452.97
2023-04-21T14:24:28.508Z,97438.28
2023-04-21T14:28:31.264Z,97425.41
2023-04-21T14:32:33.478Z,97420.19
2023-04-21T14:36:37.245Z,97416.13
2023-04-21T14:40:39.298Z,97415.00
2023-04-21T14:44:41.376Z,97411.28
2023-04-21T14:48:43.863Z,97405.84
2023-04-21T14:52:49.242Z,97401.41
2023-04-21T14:56:51.387Z,97389.84
2023-04-21T15:00:53.509Z,97392.25
2023-04-21T15:04:56.557Z,97377.44
2023-04-21T15:08:58.631Z,97382.63
2023-04-21T15:13:00.733Z,97369.13
2023-04-21T15:17:02.944Z,97380.31
2023-04-21T15:21:05.447Z,97369.97
2023-04-21T15:25:07.859Z,97372.72
2023-04-21T15:29:09.921Z,97357.56
2023-04-21T15:33:12.031Z,97349.47
2023-04-21T15:37:17.001Z,97339.69
2023-04-21T15:41:19.496Z,97354.91
2023-04-21T15:45:21.523Z,97340.66
2023-04-21T15:49:33.208Z,97338.16
2023-04-21T15:53:37.241Z,97341.66
2023-04-21T15:57:39.335Z,97343.09
2023-04-21T16:01:41.405Z,97335.97
2023-04-21T16:05:43.536Z,97325.59
2023-04-21T16:09:46.141Z,97323.09
2023-04-21T16:13:48.304Z,97316.09
2023-04-21T16:17:50.366Z,97308.66
2023-04-21T16:21:52.492Z,97304.31
2023-04-21T16:25:54.866Z,97294.69
2023-04-21T16:29:57.012Z,97293.13
2023-04-21T16:34:00.313Z,97279.19
2023-04-21T16:38:02.751Z,97283.88
2023-04-21T16:42:04.918Z,97281.47
2023-04-21T16:46:06.976Z,97284.38
2023-04-21T16:50:09.734Z,97272.34
2023-04-21T16:54:12.224Z,97278.72
2023-04-21T16:58:14.263Z,97280.66
2023-04-21T17:02:16.335Z,97282.59
2023-04-21T17:06:20.928Z,97284.66
2023-04-21T17:10:23.008Z,97287.78
2023-04-21T17:14:25.026Z,97286.47
2023-04-21T17:18:27.043Z,97285.16
2023-04-21T17:22:29.073Z,97287.34
2023-04-21T17:26:31.148Z,97284.66
2023-04-21T17:30:35.769Z,97289.00
2023-04-21T17:34:38.164Z,97296.94
2023-04-21T17:38:42.608Z,97291.63
2023-04-21T17:42:44.743Z,97292.34
2023-04-21T17:46:47.188Z,97291.50
2023-04-21T17:50:49.270Z,97299.88
2023-04-21T17:54:51.263Z,97302.38
2023-04-21T17:58:53.256Z,97304.41
2023-04-21T18:02:55.341Z,97298.63
2023-04-21T18:06:57.561Z,97287.09
2023-04-21T18:10:59.670Z,97284.38
2023-04-21T18:15:01.970Z,97285.41
2023-04-21T18:19:04.996Z,97291.72
2023-04-21T18:23:07.105Z,97293.69
2023-04-21T18:27:11.079Z,97308.50
2023-04-21T18:31:13.144Z,97329.47
2023-04-21T18:35:15.363Z,97337.44
2023-04-21T18:39:17.371Z,97340.03
2023-04-21T18:43:19.422Z,97326.28
2023-04-21T18:47:21.690Z,97335.22
2023-04-21T18:51:23.994Z,97330.19
2023-04-21T18:55:26.179Z,97328.03
2023-04-21T18:59:28.160Z,97328.16
2023-04-21T19:03:30.539Z,97330.28
2023-04-21T19:07:34.407Z,97345.50
2023-04-21T19:11:36.491Z,97342.50
2023-04-21T19:15:38.802Z,97338.63
2023-04-21T19:19:41.175Z,97335.56
2023-04-21T19:23:43.258Z,97330.19
2023-04-21T19:27:46.297Z,97330.50
2023-04-21T19:31:48.441Z,97331.34
2023-04-21T19:35:50.568Z,97326.75
2023-04-21T19:39:52.646Z,97315.91
2023-04-21T19:43:54.679Z,97314.19
2023-04-21T19:47:56.762Z,97328.00
2023-04-21T19:51:58.778Z,97328.00
2023-04-21T19:56:01.220Z,97331.38
2023-04-21T20:00:05.704Z,97329.59
2023-04-21T20:04:14.511Z,97332.41
2023-04-21T20:08:16.642Z,97341.38
2023-04-21T20:12:18.823Z,97330.00
2023-04-21T20:16:20.949Z,97328.28
2023-04-21T20:20:23.044Z,97331.66
2023-04-21T20:24:25.147Z,97324.78
2023-04-21T20:28:27.606Z,97318.00
2023-04-21T20:32:29.776Z,97331.03
2023-04-21T20:36:31.890Z,97328.41
2023-04-21T20:40:36.131Z,97337.44
2023-04-21T20:44:38.651Z,97335.78
2023-04-21T20:48:40.786Z,97336.91
2023-04-21T20:52:42.802Z,97329.25
2023-04-21T20:56:44.853Z,97340.50
2023-04-21T21:00:46.931Z,97346.97
2023-04-21T21:04:49.017Z,97355.59
2023-04-21T21:08:51.322Z,97348.84
2023-04-21T21:12:53.424Z,97350.88
2023-04-21T21:16:56.359Z,97349.09
2023-04-21T21:20:58.429Z,97337.72
2023-04-21T21:25:00.413Z,97336.44
2023-04-21T21:29:02.570Z,97328.25
2023-04-21T21:33:04.643Z,97326.19
2023-04-21T21:37:06.789Z,97326.91
2023-04-21T21:41:11.468Z,97333.94
2023-04-21T21:45:13.563Z,97334.25
2023-04-21T21:49:15.914Z,97330.88
2023-04-21T21:53:18.114Z,97335.66
2023-04-21T21:57:20.167Z,97335.22
2023-04-21T22:01:23.199Z,97338.22
2023-04-21T22:05:25.650Z,97329.59
2023-04-21T22:09:27.646Z,97333.31
2023-04-21T22:13:29.851Z,97322.44
2023-04-21T22:17:34.442Z,97329.75
2023-04-21T22:21:36.930Z,97331.03
2023-04-21T22:25:39.008Z,97328.75
2023-04-21T22:29:41.331Z,97326.31
2023-04-21T22:33:43.610Z,97333.56
2023-04-21T22:37:45.618Z,97340.03
2023-04-21T22:41:47.751Z,97343.53
2023-04-21T22:45:49.953Z,97339.38
2023-04-21T22:49:53.256Z,97331.94
2023-04-21T22:53:58.238Z,97334.25
2023-04-21T22:58:00.291Z,97332.94
2023-04-21T23:02:02.398Z,97338.25
2023-04-21T23:06:04.745Z,97322.75
2023-04-21T23:10:07.239Z,97325.78
2023-04-21T23:14:09.500Z,97324.78
2023-04-21T23:18:11.640Z,97323.75
2023-04-21T23:22:13.820Z,97335.28
2023-04-21T23:26:15.994Z,97336.47
2023-04-21T23:30:18.204Z,97344.88
2023-04-21T23:34:20.337Z,97337.53
2023-04-21T23:38:22.458Z,97332.59
2023-04-21T23:42:24.516Z,97339.63
2023-04-21T23:46:27.001Z,97335.06
2023-04-21T23:50:29.252Z,97333.00
2023-04-21T23:54:31.586Z,97342.59
2023-04-21T23:58:33.677Z,97338.25
